Time;durP1;ratioP1;P1;durP2;ratioP2;P2;SDS_P1;SDS_P2;PMS_P1;PMS_P2;Temp;Humidity;BMP_temperature;BMP_pressure;BME280_temperature;BME280_humidity;BME280_pressure;Samples;Min_cycle;Max_cycle;Signal;HPM_P1;HPM_P2
2021/09/01 00:00:36;;;;;;;11.63;4.37;;;15.40;86.90;;;;;;5074838;28;20439;-86
2021/09/01 00:03:02;;;;;;;17.08;4.88;;;15.50;86.60;;;;;;5074003;28;20782;-89
2021/09/01 00:05:28;;;;;;;21.80;4.75;;;15.50;86.70;;;;;;5092925;28;20420;-88
2021/09/01 00:07:53;;;;;;;17.53;5.00;;;15.40;87.00;;;;;;5074631;28;20855;-87
2021/09/01 00:10:19;;;;;;;13.57;4.30;;;15.40;86.90;;;;;;5092297;28;20417;-87
2021/09/01 00:12:44;;;;;;;13.45;4.75;;;15.30;86.60;;;;;;5092231;28;20380;-87
2021/09/01 00:15:11;;;;;;;13.10;4.10;;;15.40;86.50;;;;;;5092515;28;20425;-87
2021/09/01 00:17:37;;;;;;;12.97;3.97;;;15.40;86.70;;;;;;5092360;28;20406;-86
2021/09/01 00:20:06;;;;;;;14.83;4.43;;;15.50;86.50;;;;;;5092602;28;20414;-87
2021/09/01 00:22:32;;;;;;;15.35;4.63;;;15.40;86.10;;;;;;5074681;28;20785;-87
2021/09/01 00:24:58;;;;;;;13.88;4.10;;;15.40;86.20;;;;;;5074277;28;20469;-87
2021/09/01 00:27:23;;;;;;;21.42;4.75;;;15.50;85.90;;;;;;5074495;28;20435;-87
2021/09/01 00:29:49;;;;;;;15.93;5.07;;;15.30;87.40;;;;;;5092179;28;20523;-86
2021/09/01 00:32:14;;;;;;;10.63;4.20;;;15.40;86.50;;;;;;5108050;28;20374;-88
2021/09/01 00:34:40;;;;;;;12.73;4.50;;;15.40;86.30;;;;;;5073989;28;20405;-87
2021/09/01 00:37:06;;;;;;;13.57;4.72;;;15.30;86.60;;;;;;5092133;28;20429;-87
2021/09/01 00:39:31;;;;;;;15.60;5.30;;;15.30;86.30;;;;;;5108243;28;20386;-86
2021/09/01 00:42:04;;;;;;;14.17;4.60;;;15.30;86.60;;;;;;5108012;28;20455;-86
2021/09/01 00:44:30;;;;;;;16.33;4.38;;;15.20;86.50;;;;;;5073200;28;20386;-86
2021/09/01 00:46:56;;;;;;;9.63;4.38;;;15.30;86.50;;;;;;5074138;28;20822;-87
2021/09/01 00:49:23;;;;;;;12.60;4.20;;;15.30;86.20;;;;;;5092109;28;20375;-87
2021/09/01 00:51:50;;;;;;;15.52;4.28;;;15.30;86.30;;;;;;5092206;28;20374;-89
2021/09/01 00:54:21;;;;;;;15.23;4.10;;;15.40;86.20;;;;;;5091979;28;20938;-88
2021/09/01 00:56:52;;;;;;;13.88;4.68;;;15.40;86.10;;;;;;5092085;28;20374;-85
2021/09/01 00:59:25;;;;;;;13.55;4.65;;;15.30;85.80;;;;;;5092267;28;20405;-87
2021/09/01 01:01:52;;;;;;;14.85;4.97;;;15.30;86.00;;;;;;5074327;28;20455;-88
2021/09/01 01:04:18;;;;;;;11.95;4.18;;;15.10;86.30;;;;;;5092247;28;20385;-87
2021/09/01 01:06:44;;;;;;;17.35;4.68;;;15.20;86.10;;;;;;5092075;28;20378;-87
2021/09/01 01:09:10;;;;;;;14.07;4.05;;;15.20;86.30;;;;;;5107884;28;20890;-87
2021/09/01 01:11:38;;;;;;;26.13;4.43;;;15.30;86.00;;;;;;5091809;28;20436;-86
2021/09/01 01:14:03;;;;;;;17.20;4.40;;;15.20;85.70;;;;;;5091700;28;20462;-85
2021/09/01 01:16:31;;;;;;;12.90;4.47;;;15.20;85.50;;;;;;5107377;28;20386;-88
2021/09/01 01:18:59;;;;;;;9.13;3.63;;;15.10;86.10;;;;;;5107730;28;20473;-86
2021/09/01 01:21:28;;;;;;;9.77;3.87;;;15.10;86.30;;;;;;5091754;28;20386;-87
2021/09/01 01:23:55;;;;;;;14.95;3.75;;;15.00;85.90;;;;;;5107525;28;20378;-87
2021/09/01 01:26:21;;;;;;;13.02;3.55;;;15.20;86.00;;;;;;5073733;28;20400;-86
2021/09/01 01:28:57;;;;;;;11.30;4.30;;;15.20;85.50;;;;;;5091705;28;20439;-87
2021/09/01 01:31:23;;;;;;;11.20;3.88;;;15.30;85.40;;;;;;5091711;28;20386;-86
2021/09/01 01:33:49;;;;;;;11.68;4.10;;;15.20;85.60;;;;;;5091369;28;20397;-86
2021/09/01 01:36:15;;;;;;;14.30;3.67;;;15.30;85.60;;;;;;5091766;28;20535;-86
2021/09/01 01:38:40;;;;;;;14.32;4.15;;;15.20;85.20;;;;;;5091596;28;20476;-86
2021/09/01 01:41:06;;;;;;;12.73;3.90;;;15.30;86.00;;;;;;5073731;28;20393;-86
2021/09/01 01:43:36;;;;;;;11.80;3.93;;;15.10;85.60;;;;;;5091843;28;20388;-87
2021/09/01 01:46:01;;;;;;;12.80;3.65;;;15.30;85.50;;;;;;5091711;28;20386;-87
2021/09/01 01:48:27;;;;;;;15.02;4.20;;;15.10;85.50;;;;;;5091326;28;20382;-88
2021/09/01 01:50:52;;;;;;;15.43;3.97;;;15.20;85.70;;;;;;5073682;28;21150;-87
2021/09/01 01:53:18;;;;;;;11.57;3.77;;;15.20;85.60;;;;;;5073542;28;20823;-86
2021/09/01 01:55:44;;;;;;;12.17;3.97;;;15.10;86.00;;;;;;5092803;28;20407;-87
2021/09/01 01:58:10;;;;;;;9.57;3.47;;;15.10;86.10;;;;;;5095105;28;20389;-86
2021/09/01 02:00:36;;;;;;;12.10;4.00;;;15.20;86.00;;;;;;5095153;28;20871;-86
2021/09/01 02:03:02;;;;;;;12.63;3.90;;;15.10;86.20;;;;;;5095241;28;20458;-87
2021/09/01 02:05:27;;;;;;;14.38;5.22;;;15.10;86.50;;;;;;5077085;28;20481;-88
2021/09/01 02:07:53;;;;;;;15.63;4.40;;;15.20;86.10;;;;;;5077118;28;20511;-88
2021/09/01 02:10:19;;;;;;;14.95;4.82;;;14.90;86.80;;;;;;5076964;28;20374;-87
2021/09/01 02:12:44;;;;;;;16.75;4.45;;;15.00;86.90;;;;;;5077285;28;20394;-86
2021/09/01 02:15:11;;;;;;;15.63;4.53;;;15.00;86.70;;;;;;5094644;28;20886;-87
2021/09/01 02:17:37;;;;;;;15.65;4.45;;;14.90;87.20;;;;;;5110613;28;20792;-86
2021/09/01 02:20:05;;;;;;;12.45;4.35;;;14.90;86.80;;;;;;5094574;28;20378;-87
2021/09/01 02:22:31;;;;;;;13.93;4.70;;;14.90;86.90;;;;;;5094914;28;20378;-87
2021/09/01 02:24:56;;;;;;;15.40;4.23;;;14.90;86.70;;;;;;5110567;28;20459;-87
2021/09/01 02:27:22;;;;;;;12.40;4.10;;;14.80;87.10;;;;;;5110701;28;20433;-87
2021/09/01 02:29:48;;;;;;;12.95;5.25;;;14.90;87.00;;;;;;5076830;28;20392;-87
2021/09/01 02:32:13;;;;;;;10.82;4.15;;;15.00;86.70;;;;;;5094732;28;20773;-87
2021/09/01 02:34:40;;;;;;;14.80;4.88;;;15.00;87.00;;;;;;5094812;28;20398;-86
2021/09/01 02:37:05;;;;;;;9.90;3.95;;;14.90;87.60;;;;;;5076602;28;20463;-87
2021/09/01 02:39:31;;;;;;;11.07;4.23;;;15.00;87.00;;;;;;5076395;28;20382;-87
2021/09/01 02:41:57;;;;;;;13.70;4.50;;;14.90;87.00;;;;;;5094304;28;20723;-87
2021/09/01 02:44:22;;;;;;;13.02;4.15;;;14.80;87.20;;;;;;5094585;28;20854;-87
2021/09/01 02:46:48;;;;;;;13.50;4.82;;;15.00;86.90;;;;;;5094490;28;20377;-86
2021/09/01 02:49:14;;;;;;;13.57;4.30;;;15.00;87.10;;;;;;5094697;28;20382;-88
2021/09/01 02:51:39;;;;;;;12.27;4.23;;;14.80;86.90;;;;;;5094163;28;20385;-88
2021/09/01 02:54:05;;;;;;;19.30;5.40;;;14.80;87.10;;;;;;5094213;28;20452;-88
2021/09/01 02:56:31;;;;;;;10.07;4.00;;;14.70;87.70;;;;;;5075899;28;20386;-86
2021/09/01 02:58:57;;;;;;;14.00;4.63;;;14.90;87.20;;;;;;5093936;28;20384;-87
2021/09/01 03:01:23;;;;;;;15.87;4.93;;;14.90;86.70;;;;;;5076073;28;20384;-86
2021/09/01 03:03:48;;;;;;;11.53;4.47;;;14.80;87.20;;;;;;5093947;28;20385;-87
2021/09/01 03:06:14;;;;;;;14.45;4.45;;;14.80;87.40;;;;;;5093881;28;20370;-86
2021/09/01 03:08:39;;;;;;;15.55;5.43;;;14.70;87.30;;;;;;5108957;28;20461;-86
2021/09/01 03:11:05;;;;;;;15.33;5.17;;;14.70;87.30;;;;;;5075777;28;20435;-85
2021/09/01 03:13:32;;;;;;;14.40;4.63;;;14.60;87.50;;;;;;5093397;28;20406;-87
2021/09/01 03:15:57;;;;;;;13.80;4.78;;;14.70;87.30;;;;;;5075594;28;20402;-86
2021/09/01 03:18:23;;;;;;;15.60;5.88;;;14.80;87.30;;;;;;5075487;28;20488;-87
2021/09/01 03:20:48;;;;;;;11.67;4.20;;;14.80;86.90;;;;;;5093803;28;20851;-86
2021/09/01 03:23:14;;;;;;;16.13;4.70;;;14.80;86.60;;;;;;5093540;28;20461;-87
2021/09/01 03:25:40;;;;;;;14.90;4.32;;;14.80;86.90;;;;;;5093501;28;20374;-87
2021/09/01 03:28:05;;;;;;;16.48;5.32;;;14.80;87.00;;;;;;5109129;28;20652;-86
2021/09/01 03:30:31;;;;;;;14.82;4.45;;;14.70;87.20;;;;;;5093380;28;20374;-87
2021/09/01 03:32:57;;;;;;;14.90;5.03;;;14.80;87.20;;;;;;5109098;28;20375;-87
2021/09/01 03:35:23;;;;;;;11.55;4.32;;;14.60;86.90;;;;;;5093509;28;20391;-87
2021/09/01 03:37:49;;;;;;;10.77;4.15;;;14.80;87.10;;;;;;5075351;28;20468;-87
2021/09/01 03:40:15;;;;;;;14.93;4.53;;;14.90;86.50;;;;;;5074710;28;20393;-87
2021/09/01 03:42:40;;;;;;;15.00;4.35;;;14.80;87.00;;;;;;5093368;28;20382;-86
2021/09/01 03:45:07;;;;;;;13.60;4.50;;;14.70;87.20;;;;;;5093097;28;20361;-88
2021/09/01 03:47:33;;;;;;;9.85;5.13;;;14.60;87.70;;;;;;5108772;28;20393;-88
2021/09/01 03:49:59;;;;;;;10.55;4.00;;;14.70;87.30;;;;;;5108972;28;20463;-86
2021/09/01 03:52:25;;;;;;;12.85;5.03;;;14.80;87.50;;;;;;5075083;28;20387;-86
2021/09/01 03:54:50;;;;;;;16.55;4.93;;;14.80;87.00;;;;;;5092969;28;20394;-87
2021/09/01 03:57:16;;;;;;;11.77;4.30;;;14.80;86.40;;;;;;5092985;28;20886;-86
2021/09/01 03:59:41;;;;;;;12.47;4.00;;;14.80;86.80;;;;;;5074844;28;20381;-88
2021/09/01 04:02:07;;;;;;;12.00;4.50;;;14.80;87.30;;;;;;5074914;28;20931;-87
2021/09/01 04:04:34;;;;;;;16.38;5.15;;;14.80;86.80;;;;;;5092876;28;20798;-87
2021/09/01 04:07:00;;;;;;;17.90;4.63;;;14.70;87.10;;;;;;5092818;28;20374;-86
2021/09/01 04:09:26;;;;;;;13.20;4.47;;;14.80;87.00;;;;;;5092687;28;20381;-86
2021/09/01 04:11:51;;;;;;;15.75;5.15;;;14.90;87.10;;;;;;5108243;28;20382;-87
2021/09/01 04:14:17;;;;;;;11.63;4.30;;;14.70;86.70;;;;;;5074324;28;20431;-86
2021/09/01 04:16:42;;;;;;;13.17;5.00;;;14.60;88.00;;;;;;5092467;28;20378;-87
2021/09/01 04:19:08;;;;;;;13.30;5.13;;;14.70;87.60;;;;;;5092594;28;20846;-86
2021/09/01 04:21:33;;;;;;;12.98;4.18;;;14.50;88.20;;;;;;5092642;28;20506;-88
2021/09/01 04:23:59;;;;;;;10.98;4.65;;;14.60;88.10;;;;;;5092757;28;20801;-86
2021/09/01 04:26:25;;;;;;;11.03;4.47;;;14.60;87.90;;;;;;5108325;28;20419;-87
2021/09/01 04:28:50;;;;;;;10.27;4.37;;;14.80;88.10;;;;;;5092432;28;20379;-86
2021/09/01 04:31:16;;;;;;;13.40;4.47;;;14.80;87.80;;;;;;5092411;28;20393;-86
2021/09/01 04:33:41;;;;;;;12.87;4.77;;;14.80;87.30;;;;;;5092044;28;20394;-86
2021/09/01 04:36:07;;;;;;;13.63;4.53;;;14.80;87.30;;;;;;5092421;28;20420;-88
2021/09/01 04:38:32;;;;;;;10.82;4.50;;;14.80;87.00;;;;;;5074049;28;20382;-87
2021/09/01 04:40:58;;;;;;;13.02;4.72;;;14.90;87.10;;;;;;5092388;28;20385;-87
2021/09/01 04:43:24;;;;;;;13.80;4.47;;;14.80;87.00;;;;;;5092705;28;20780;-87
2021/09/01 04:45:49;;;;;;;9.30;3.77;;;14.90;86.90;;;;;;5074189;28;20385;-87
2021/09/01 04:48:15;;;;;;;11.55;4.25;;;14.90;87.20;;;;;;5092023;28;20376;-87
2021/09/01 04:50:40;;;;;;;10.85;4.07;;;14.90;87.10;;;;;;5092180;28;20843;-86
2021/09/01 04:53:06;;;;;;;10.53;3.63;;;15.00;87.00;;;;;;5092053;28;20390;-87
2021/09/01 04:55:31;;;;;;;12.07;3.80;;;15.00;87.00;;;;;;5092125;28;20477;-87
2021/09/01 04:57:57;;;;;;;11.30;3.65;;;15.00;86.90;;;;;;5108314;28;20390;-87
2021/09/01 05:00:22;;;;;;;11.03;3.70;;;15.10;86.90;;;;;;5107929;28;20757;-87
2021/09/01 05:02:48;;;;;;;11.70;4.47;;;15.00;86.90;;;;;;5092214;28;20790;-87
2021/09/01 05:05:13;;;;;;;12.15;3.72;;;14.90;87.00;;;;;;5074283;28;20393;-87
2021/09/01 05:07:39;;;;;;;8.80;4.20;;;15.00;87.30;;;;;;5099738;28;20396;-87
2021/09/01 05:10:05;;;;;;;8.80;3.87;;;15.00;87.10;;;;;;5054151;28;20379;-87
2021/09/01 05:12:31;;;;;;;10.50;4.13;;;15.00;87.00;;;;;;5054002;28;20871;-87
2021/09/01 05:14:57;;;;;;;11.67;3.90;;;15.00;87.30;;;;;;5053835;28;20506;-87
2021/09/01 05:17:23;;;;;;;13.90;3.97;;;15.00;87.20;;;;;;5071737;28;20408;-86
2021/09/01 05:19:50;;;;;;;12.30;3.90;;;15.10;87.00;;;;;;5069220;28;20393;-86
2021/09/01 05:22:18;;;;;;;9.23;4.03;;;15.00;87.10;;;;;;5092064;28;20382;-87
2021/09/01 05:24:53;;;;;;;9.85;4.15;;;15.10;87.10;;;;;;5073891;28;20393;-87
2021/09/01 05:27:21;;;;;;;10.63;4.03;;;15.00;87.30;;;;;;5073604;28;20405;-87
2021/09/01 05:29:48;;;;;;;14.73;4.22;;;15.00;87.30;;;;;;5073650;28;20393;-87
2021/09/01 05:32:24;;;;;;;19.00;4.63;;;15.00;87.00;;;;;;5077757;28;20393;-87
2021/09/01 05:34:59;;;;;;;13.25;5.35;;;14.90;87.00;;;;;;5077617;28;20889;-86
2021/09/01 05:37:26;;;;;;;18.08;4.90;;;14.80;87.30;;;;;;5095612;28;20374;-88
2021/09/01 05:39:53;;;;;;;9.90;4.70;;;14.70;87.40;;;;;;5095711;28;20870;-87
2021/09/01 05:42:21;;;;;;;14.30;4.20;;;14.60;87.10;;;;;;5111376;28;20788;-87
2021/09/01 05:44:48;;;;;;;10.65;4.53;;;14.60;87.50;;;;;;5095711;28;20389;-87
2021/09/01 05:47:15;;;;;;;11.07;3.85;;;14.80;87.50;;;;;;5095554;28;20371;-87
2021/09/01 05:49:42;;;;;;;14.33;4.37;;;14.80;87.20;;;;;;5095602;28;20381;-87
2021/09/01 05:52:08;;;;;;;10.57;4.20;;;14.70;86.90;;;;;;5095294;28;20397;-87
2021/09/01 05:54:35;;;;;;;9.52;3.80;;;14.60;87.40;;;;;;5077372;28;20874;-87
2021/09/01 05:57:11;;;;;;;12.02;4.05;;;14.80;87.00;;;;;;5095330;28;20382;-87
2021/09/01 06:00:00;;;;;;;17.23;4.70;;;14.80;87.30;;;;;;5071294;28;20938;-87
2021/09/01 06:02:39;;;;;;;18.30;6.13;;;14.80;86.80;;;;;;5094165;28;20374;-86
2021/09/01 06:05:07;;;;;;;16.63;4.47;;;14.70;86.60;;;;;;5075569;28;20390;-87
2021/09/01 06:07:33;;;;;;;12.18;4.80;;;14.70;87.00;;;;;;5076215;28;20866;-86
2021/09/01 06:10:00;;;;;;;10.10;5.22;;;14.80;87.40;;;;;;5076266;28;20389;-86
2021/09/01 06:12:28;;;;;;;13.73;5.43;;;14.80;87.20;;;;;;5076041;28;20463;-87
2021/09/01 06:14:53;;;;;;;11.93;4.50;;;14.90;87.20;;;;;;5094220;28;20456;-86
2021/09/01 06:17:19;;;;;;;12.20;4.53;;;14.90;86.70;;;;;;5094548;28;20402;-86
2021/09/01 06:19:45;;;;;;;17.17;5.90;;;14.80;87.20;;;;;;5076808;28;20493;-86
2021/09/01 06:22:12;;;;;;;12.83;4.83;;;14.70;87.30;;;;;;5094931;28;20378;-86
2021/09/01 06:24:38;;;;;;;14.00;4.70;;;14.70;87.00;;;;;;5077038;28;20382;-88
2021/09/01 06:27:04;;;;;;;11.52;4.97;;;14.70;87.10;;;;;;5109992;28;20894;-87
2021/09/01 06:29:29;;;;;;;12.02;5.40;;;14.50;87.00;;;;;;5092987;28;20490;-85
2021/09/01 06:31:56;;;;;;;11.13;4.80;;;14.60;87.10;;;;;;5076224;28;20382;-87
2021/09/01 06:34:22;;;;;;;13.18;5.65;;;14.70;87.10;;;;;;5094356;28;20441;-86
2021/09/01 06:36:47;;;;;;;15.20;5.75;;;14.60;87.30;;;;;;5094604;28;20378;-86
2021/09/01 06:39:13;;;;;;;14.80;6.00;;;14.60;86.60;;;;;;5094483;28;20426;-87
2021/09/01 06:41:39;;;;;;;17.48;5.68;;;14.70;87.00;;;;;;5075562;28;20390;-86
2021/09/01 06:44:05;;;;;;;18.48;5.07;;;14.80;87.20;;;;;;5076031;28;20390;-86
2021/09/01 06:46:31;;;;;;;17.92;5.05;;;14.60;87.00;;;;;;5076330;28;20394;-87
2021/09/01 06:48:57;;;;;;;16.40;6.03;;;14.70;86.90;;;;;;5094373;28;20722;-86
2021/09/01 06:51:23;;;;;;;13.57;4.87;;;14.80;86.80;;;;;;5076448;28;20447;-87
2021/09/01 06:53:48;;;;;;;17.20;5.10;;;14.70;87.10;;;;;;5094130;28;20774;-86
2021/09/01 06:56:14;;;;;;;19.77;6.32;;;14.80;86.90;;;;;;5076288;28;20390;-87
2021/09/01 06:58:39;;;;;;;16.50;5.17;;;14.80;87.00;;;;;;5076147;28;20382;-87
2021/09/01 07:01:05;;;;;;;12.63;4.87;;;14.80;86.50;;;;;;5076106;28;20443;-87
2021/09/01 07:03:31;;;;;;;18.63;5.03;;;14.90;86.70;;;;;;5094110;28;20417;-86
2021/09/01 07:05:56;;;;;;;13.32;4.72;;;14.80;86.70;;;;;;5075959;28;20390;-86
2021/09/01 07:08:23;;;;;;;12.60;4.90;;;14.90;86.90;;;;;;5094157;28;20382;-87
2021/09/01 07:10:49;;;;;;;16.30;4.85;;;14.80;86.90;;;;;;5076002;28;20393;-87
2021/09/01 07:13:15;;;;;;;15.45;4.68;;;14.80;86.90;;;;;;5075646;28;20777;-87
2021/09/01 07:15:41;;;;;;;15.73;4.83;;;14.80;87.00;;;;;;5093711;28;20398;-87
2021/09/01 07:18:06;;;;;;;12.07;4.33;;;14.80;87.40;;;;;;5075515;28;20954;-85
2021/09/01 07:20:32;;;;;;;12.40;4.53;;;14.80;86.90;;;;;;5093763;28;20394;-87
2021/09/01 07:22:57;;;;;;;12.45;4.80;;;14.70;87.20;;;;;;5093336;28;20406;-86
2021/09/01 07:25:23;;;;;;;11.83;4.40;;;14.70;86.50;;;;;;5084715;28;20390;-87
2021/09/01 07:27:49;;;;;;;16.63;5.17;;;14.80;86.80;;;;;;5092310;28;20390;-88
2021/09/01 07:30:15;;;;;;;14.83;4.70;;;14.80;86.90;;;;;;5092182;28;20465;-87
2021/09/01 07:32:40;;;;;;;14.97;4.73;;;14.80;86.30;;;;;;5093446;28;20465;-87
2021/09/01 07:35:06;;;;;;;14.40;4.45;;;14.90;86.50;;;;;;5093314;28;20402;-87
2021/09/01 07:37:31;;;;;;;19.63;5.40;;;14.90;86.10;;;;;;5092179;28;20383;-88
2021/09/01 07:39:57;;;;;;;13.97;5.90;;;14.90;86.00;;;;;;5093511;28;20494;-86
2021/09/01 07:42:23;;;;;;;15.57;5.00;;;14.80;86.70;;;;;;5092209;28;20392;-87
2021/09/01 07:44:48;;;;;;;15.25;4.75;;;14.90;86.30;;;;;;5093126;28;20393;-87
2021/09/01 07:47:14;;;;;;;17.58;6.03;;;14.90;86.10;;;;;;5092084;28;20862;-87
2021/09/01 07:49:41;;;;;;;14.80;4.50;;;14.90;86.50;;;;;;5093520;28;20442;-86
2021/09/01 07:52:07;;;;;;;13.82;4.47;;;14.90;87.00;;;;;;5093057;28;20476;-87
2021/09/01 07:54:33;;;;;;;14.27;4.53;;;14.90;86.10;;;;;;5092148;28;20973;-87
2021/09/01 07:56:59;;;;;;;13.10;4.72;;;14.90;86.00;;;;;;5091786;28;20386;-87
2021/09/01 07:59:24;;;;;;;13.32;4.93;;;15.00;85.80;;;;;;5091791;28;20734;-86
2021/09/01 08:01:50;;;;;;;15.30;4.57;;;15.00;86.10;;;;;;5091826;28;20440;-87
2021/09/01 08:04:15;;;;;;;11.20;4.27;;;15.00;85.80;;;;;;5091864;28;20386;-88
2021/09/01 08:06:41;;;;;;;16.48;4.50;;;14.90;85.70;;;;;;5091614;28;20476;-87
2021/09/01 08:09:06;;;;;;;14.63;5.10;;;14.80;86.80;;;;;;5091407;28;20382;-86
2021/09/01 08:11:32;;;;;;;13.67;4.67;;;14.90;86.60;;;;;;5091738;28;20417;-86
2021/09/01 08:13:57;;;;;;;12.15;4.75;;;14.90;86.30;;;;;;5091611;28;20402;-87
2021/09/01 08:16:23;;;;;;;13.97;4.63;;;14.90;85.00;;;;;;5092764;28;20751;-87
2021/09/01 08:18:49;;;;;;;17.30;5.27;;;14.90;85.50;;;;;;5091525;28;20874;-88
2021/09/01 08:21:14;;;;;;;11.60;5.10;;;14.90;84.80;;;;;;5092314;28;20875;-88
2021/09/01 08:23:40;;;;;;;12.47;5.07;;;15.00;85.20;;;;;;5092690;28;20374;-86
2021/09/01 08:26:05;;;;;;;17.20;5.87;;;14.80;85.30;;;;;;5092822;28;20381;-88
2021/09/01 08:28:31;;;;;;;16.92;5.22;;;14.80;85.60;;;;;;5091524;28;20374;-88
2021/09/01 08:30:56;;;;;;;16.60;5.20;;;14.90;85.00;;;;;;5092598;28;20374;-88
2021/09/01 08:33:22;;;;;;;9.70;4.23;;;14.80;84.90;;;;;;5092522;28;20378;-88
2021/09/01 08:35:47;;;;;;;14.33;4.10;;;14.80;85.10;;;;;;5091313;28;20401;-87
2021/09/01 08:38:13;;;;;;;13.00;4.20;;;14.90;84.90;;;;;;5090953;28;20388;-83
2021/09/01 08:40:39;;;;;;;14.53;4.43;;;14.90;84.60;;;;;;5091304;28;20390;-88
2021/09/01 08:43:06;;;;;;;14.63;4.47;;;15.10;84.10;;;;;;5091493;28;20716;-90
2021/09/01 08:45:32;;;;;;;14.32;4.25;;;15.10;84.20;;;;;;5092654;28;20378;-89
2021/09/01 08:47:58;;;;;;;11.80;4.33;;;15.10;84.20;;;;;;5092615;28;20381;-87
2021/09/01 08:50:27;;;;;;;10.55;4.13;;;15.20;84.30;;;;;;5092507;28;20370;-88
2021/09/01 08:52:52;;;;;;;8.98;4.00;;;15.30;84.80;;;;;;5091678;28;20389;-89
2021/09/01 08:55:19;;;;;;;11.80;4.05;;;15.10;83.90;;;;;;5091250;28;20759;-89
2021/09/01 08:57:45;;;;;;;13.18;4.25;;;15.10;84.50;;;;;;5091352;28;20394;-88
2021/09/01 09:00:11;;;;;;;12.27;3.92;;;15.10;84.60;;;;;;5092784;28;20939;-88
2021/09/01 09:02:36;;;;;;;12.35;4.00;;;15.10;83.30;;;;;;5092492;28;20379;-89
2021/09/01 09:05:08;;;;;;;8.40;4.00;;;15.30;83.70;;;;;;5092850;28;20411;-89
2021/09/01 09:08:01;;;;;;;12.15;4.15;;;15.20;84.60;;;;;;5095511;28;20739;-88
2021/09/01 09:10:32;;;;;;;10.98;4.15;;;15.10;83.90;;;;;;5092120;28;20421;-90
2021/09/01 09:13:05;;;;;;;12.73;4.00;;;15.30;84.10;;;;;;5095325;28;20439;-88
2021/09/01 09:15:30;;;;;;;9.82;3.97;;;15.30;83.90;;;;;;5095073;28;20409;-89
2021/09/01 09:17:56;;;;;;;9.90;3.80;;;15.20;84.10;;;;;;5095249;28;20385;-87
2021/09/01 09:20:31;;;;;;;9.43;3.70;;;15.20;83.80;;;;;;5096420;28;20757;-87
2021/09/01 09:23:06;;;;;;;15.10;4.20;;;15.40;83.80;;;;;;5095150;28;20447;-89
2021/09/01 09:25:33;;;;;;;12.25;4.10;;;15.40;83.80;;;;;;5096275;28;20423;-89
2021/09/01 09:28:05;;;;;;;11.10;3.65;;;15.40;84.00;;;;;;5096348;28;20378;-92
2021/09/01 09:30:45;;;;;;;15.07;4.60;;;15.40;84.00;;;;;;5096235;28;20421;-88
2021/09/01 09:33:19;;;;;;;11.53;4.03;;;15.10;83.60;;;;;;5094505;28;20501;-91
2021/09/01 09:35:53;;;;;;;11.17;4.20;;;15.20;84.00;;;;;;5094780;28;20785;-87
2021/09/01 09:38:35;;;;;;;10.37;4.23;;;15.30;83.40;;;;;;5094806;28;20451;-88
2021/09/01 09:41:07;;;;;;;12.18;4.97;;;15.30;83.50;;;;;;5095990;28;20382;-89
2021/09/01 09:43:33;;;;;;;10.57;3.97;;;15.40;83.40;;;;;;5094767;28;20385;-87
2021/09/01 09:46:04;;;;;;;6.18;3.80;;;15.40;83.00;;;;;;5094933;28;20390;-89
2021/09/01 09:48:32;;;;;;;10.02;3.95;;;15.40;82.80;;;;;;5095037;28;20428;-88
2021/09/01 09:50:59;;;;;;;10.57;4.10;;;15.40;83.10;;;;;;5094532;28;20390;-88
2021/09/01 09:53:35;;;;;;;9.77;4.15;;;15.40;82.40;;;;;;5095929;28;20666;-88
2021/09/01 09:56:06;;;;;;;9.43;4.18;;;15.30;83.10;;;;;;5094493;28;20386;-88
2021/09/01 09:58:36;;;;;;;13.20;4.25;;;15.30;83.90;;;;;;5095627;28;20386;-88
2021/09/01 10:01:06;;;;;;;13.15;4.80;;;15.30;82.90;;;;;;5095683;28;20390;-89
2021/09/01 10:03:33;;;;;;;11.30;3.60;;;15.40;83.20;;;;;;5095539;28;20405;-88
2021/09/01 10:06:01;;;;;;;10.73;3.78;;;15.40;82.90;;;;;;5095510;28;20378;-88
2021/09/01 10:08:28;;;;;;;10.27;3.33;;;15.30;83.20;;;;;;5095375;28;20862;-88
2021/09/01 10:10:55;;;;;;;11.43;3.67;;;15.40;82.40;;;;;;5095475;28;20384;-89
2021/09/01 10:13:24;;;;;;;16.17;4.50;;;15.50;83.00;;;;;;5095345;28;20902;-90
2021/09/01 10:15:51;;;;;;;11.60;4.53;;;15.50;83.60;;;;;;5094894;28;20421;-87
2021/09/01 10:18:17;;;;;;;13.35;4.18;;;15.40;82.70;;;;;;5095164;28;20424;-90
2021/09/01 10:20:45;;;;;;;14.87;4.23;;;15.40;83.00;;;;;;5094037;28;20425;-89
2021/09/01 10:23:10;;;;;;;12.98;4.53;;;15.40;83.30;;;;;;5094138;28;20402;-88
2021/09/01 10:25:45;;;;;;;11.90;4.30;;;15.40;83.30;;;;;;5095578;28;20843;-88
2021/09/01 10:28:20;;;;;;;20.30;5.00;;;15.50;82.80;;;;;;5093792;28;20431;-87
2021/09/01 10:31:14;;;;;;;13.55;4.22;;;15.40;83.20;;;;;;5094858;28;20384;-88
2021/09/01 10:33:46;;;;;;;19.08;4.95;;;15.40;83.20;;;;;;5093620;28;20427;-89
2021/09/01 10:36:24;;;;;;;14.52;5.15;;;15.40;83.80;;;;;;5094994;28;20382;-88
2021/09/01 10:38:55;;;;;;;12.95;4.95;;;15.40;83.20;;;;;;5094922;28;20421;-86
2021/09/01 10:41:33;;;;;;;11.65;5.03;;;15.50;83.40;;;;;;5094815;28;20465;-87
2021/09/01 10:44:09;;;;;;;12.05;4.50;;;15.60;83.00;;;;;;5093587;28;20386;-88
2021/09/01 10:46:53;;;;;;;13.50;3.88;;;15.70;83.30;;;;;;5093735;28;20382;-88
2021/09/01 10:49:25;;;;;;;17.60;4.47;;;15.70;82.70;;;;;;5094866;28;20735;-89
2021/09/01 10:51:55;;;;;;;14.77;4.43;;;15.70;83.20;;;;;;5093225;28;20874;-92
2021/09/01 10:54:34;;;;;;;16.67;4.40;;;15.60;82.10;;;;;;5085696;28;20417;-90
2021/09/01 10:57:03;;;;;;;14.50;4.60;;;15.50;82.70;;;;;;5076793;28;20398;-92
2021/09/01 10:59:31;;;;;;;14.13;4.85;;;15.70;82.20;;;;;;5076309;28;20390;-90
2021/09/01 11:02:18;;;;;;;13.38;4.80;;;15.60;81.60;;;;;;5094584;28;20378;-91
2021/09/01 11:04:48;;;;;;;13.00;4.65;;;15.70;82.10;;;;;;5094485;28;20386;-89
2021/09/01 11:07:32;;;;;;;8.30;3.72;;;15.80;81.30;;;;;;5094614;28;20799;-89
2021/09/01 11:10:06;;;;;;;12.80;3.85;;;15.80;81.30;;;;;;5076376;28;20771;-90
2021/09/01 11:12:41;;;;;;;10.10;3.05;;;15.70;80.90;;;;;;5110089;28;20484;-91
2021/09/01 11:15:08;;;;;;;10.68;3.78;;;15.60;81.10;;;;;;5076073;28;20421;-88
2021/09/01 11:17:33;;;;;;;8.23;2.95;;;15.70;80.70;;;;;;5093886;28;20385;-89
2021/09/01 11:20:01;;;;;;;5.72;3.03;;;15.70;79.80;;;;;;5076240;28;20378;-90
2021/09/01 11:22:30;;;;;;;7.00;3.72;;;15.70;80.20;;;;;;5093863;28;20370;-89
2021/09/01 11:25:07;;;;;;;9.60;3.80;;;15.70;80.20;;;;;;5094174;28;20474;-92
2021/09/01 11:27:38;;;;;;;11.77;4.53;;;15.70;80.20;;;;;;5075567;28;20386;-92
2021/09/01 11:30:05;;;;;;;7.80;3.67;;;15.80;80.00;;;;;;5109390;28;20386;-89
2021/09/01 11:32:31;;;;;;;10.57;4.57;;;15.90;80.60;;;;;;5075934;28;20390;-89
2021/09/01 11:35:00;;;;;;;9.02;4.55;;;15.90;80.00;;;;;;5093472;28;20433;-88
2021/09/01 11:37:26;;;;;;;9.32;4.00;;;15.90;80.80;;;;;;5093738;28;20852;-86
2021/09/01 11:39:52;;;;;;;11.80;4.40;;;15.90;79.70;;;;;;5106098;28;20390;-88
2021/09/01 11:42:18;;;;;;;11.13;4.60;;;15.90;79.80;;;;;;5075563;28;20510;-88
2021/09/01 11:44:57;;;;;;;12.45;4.35;;;15.90;79.30;;;;;;5093749;28;20504;-89
2021/09/01 11:47:23;;;;;;;9.20;3.85;;;16.00;80.40;;;;;;5075730;28;20417;-88
2021/09/01 11:49:53;;;;;;;9.93;4.20;;;16.10;79.20;;;;;;5093491;28;20417;-88
2021/09/01 11:52:34;;;;;;;13.75;4.95;;;16.10;80.10;;;;;;5093305;28;20415;-88
2021/09/01 11:55:00;;;;;;;9.90;4.35;;;16.20;79.90;;;;;;5093364;28;20406;-88
2021/09/01 11:57:27;;;;;;;9.88;4.70;;;16.20;79.90;;;;;;5075440;28;20751;-88
2021/09/01 11:59:53;;;;;;;13.60;4.90;;;16.30;79.50;;;;;;5093128;28;20386;-88
2021/09/01 12:02:27;;;;;;;9.18;4.40;;;16.30;77.90;;;;;;5093132;28;20731;-88
2021/09/01 12:04:53;;;;;;;10.05;4.28;;;16.30;79.90;;;;;;5093232;28;20390;-89
2021/09/01 12:07:27;;;;;;;11.83;4.53;;;16.30;81.00;;;;;;5075211;28;20535;-88
2021/09/01 12:10:01;;;;;;;11.00;4.40;;;16.30;80.30;;;;;;5093128;28;20386;-88
2021/09/01 12:12:35;;;;;;;11.98;4.75;;;16.40;79.80;;;;;;5093336;28;20381;-89
2021/09/01 12:15:14;;;;;;;14.02;4.50;;;16.60;79.40;;;;;;5074779;28;20763;-88
2021/09/01 12:17:41;;;;;;;12.35;4.72;;;16.60;78.50;;;;;;5093013;28;20374;-88
2021/09/01 12:20:11;;;;;;;16.02;6.43;;;16.50;80.80;;;;;;5075138;28;20910;-88
2021/09/01 12:22:43;;;;;;;15.85;7.22;;;16.50;78.50;;;;;;5075205;28;20386;-89
2021/09/01 12:25:12;;;;;;;19.45;6.10;;;16.30;77.50;;;;;;5092903;28;20397;-87
2021/09/01 12:27:40;;;;;;;19.85;7.50;;;16.30;78.80;;;;;;5075124;28;20386;-87
2021/09/01 12:30:11;;;;;;;13.18;6.85;;;16.30;78.70;;;;;;5092907;28;20377;-89
2021/09/01 12:32:37;;;;;;;14.52;5.93;;;16.40;77.30;;;;;;5092883;28;20392;-89
2021/09/01 12:35:06;;;;;;;13.90;5.63;;;16.40;79.10;;;;;;5091919;28;20770;-88
2021/09/01 12:37:35;;;;;;;14.15;6.65;;;16.30;79.70;;;;;;5108236;28;20484;-89
2021/09/01 12:40:05;;;;;;;11.20;5.50;;;16.40;78.20;;;;;;5092273;28;20417;-88